Time;durP1;ratioP1;P1;durP2;ratioP2;P2;SDS_P1;SDS_P2;PMS_P1;PMS_P2;Temp;Humidity;BMP_temperature;BMP_pressure;BME280_temperature;BME280_humidity;BME280_pressure;Samples;Min_cycle;Max_cycle;Signal;HPM_P1;HPM_P2
2023/08/27 00:05:43;;;;;;;20.52;17.80;;;28.20;76.70;;;;;;6179712;23;20079;-78
2023/08/27 00:08:10;;;;;;;20.60;18.60;;;28.20;77.80;;;;;;6185513;23;20059;-77
2023/08/27 00:10:36;;;;;;;23.77;19.83;;;28.20;78.40;;;;;;6180795;23;20083;-77
2023/08/27 00:13:01;;;;;;;22.45;20.10;;;28.20;79.00;;;;;;6184179;23;20043;-80
2023/08/27 00:15:27;;;;;;;23.90;20.63;;;28.10;79.20;;;;;;6184041;23;20005;-78
2023/08/27 00:17:53;;;;;;;17.67;15.70;;;28.10;79.90;;;;;;6184362;23;20008;-77
2023/08/27 00:20:18;;;;;;;20.20;17.92;;;28.00;79.00;;;;;;6180068;23;20040;-77
2023/08/27 00:22:44;;;;;;;17.08;15.43;;;28.00;78.80;;;;;;6184090;23;20001;-78
2023/08/27 00:25:10;;;;;;;17.67;15.07;;;28.00;77.90;;;;;;6183657;23;20001;-77
2023/08/27 00:27:36;;;;;;;18.38;15.88;;;28.00;77.10;;;;;;6183587;23;20043;-79
2023/08/27 00:30:04;;;;;;;18.60;15.18;;;28.00;76.30;;;;;;6182596;23;20390;-78
2023/08/27 00:32:33;;;;;;;15.60;14.00;;;28.00;76.00;;;;;;6182046;23;20008;-77
2023/08/27 00:34:59;;;;;;;18.60;15.50;;;27.90;73.60;;;;;;6183446;23;20160;-77
2023/08/27 00:37:25;;;;;;;19.05;14.60;;;27.80;72.90;;;;;;6182214;23;20007;-77
2023/08/27 00:39:51;;;;;;;18.85;14.75;;;27.90;72.30;;;;;;6180622;23;20013;-77
2023/08/27 00:42:17;;;;;;;22.15;14.93;;;27.90;71.70;;;;;;6183799;23;20451;-77
2023/08/27 00:44:42;;;;;;;16.13;13.93;;;27.90;71.40;;;;;;6183258;23;20005;-77
2023/08/27 00:47:08;;;;;;;19.45;15.27;;;27.80;71.20;;;;;;6182815;23;20436;-78
2023/08/27 00:49:35;;;;;;;19.17;15.73;;;27.90;71.30;;;;;;6181413;23;20171;-76
2023/08/27 00:52:01;;;;;;;17.58;14.80;;;27.90;71.70;;;;;;6182980;23;20331;-77
2023/08/27 00:54:27;;;;;;;21.13;14.80;;;27.80;71.30;;;;;;6156876;23;20315;-77
2023/08/27 00:56:54;;;;;;;20.50;15.38;;;27.80;71.00;;;;;;6184085;23;20012;-77
2023/08/27 00:59:20;;;;;;;17.30;13.23;;;27.80;70.50;;;;;;6182112;23;20076;-77
2023/08/27 01:01:45;;;;;;;20.60;13.82;;;27.70;70.10;;;;;;6180360;23;19997;-78
2023/08/27 01:04:11;;;;;;;16.02;14.23;;;27.70;69.50;;;;;;6156230;23;20012;-74
2023/08/27 01:06:37;;;;;;;19.92;14.43;;;27.70;69.40;;;;;;6183517;23;20339;-77
2023/08/27 01:09:32;;;;;;;21.02;14.13;;;27.60;69.40;;;;;;6157114;23;20001;-76
2023/08/27 01:12:09;;;;;;;18.15;14.02;;;27.60;68.80;;;;;;6182214;23;20380;-77
2023/08/27 01:14:36;;;;;;;22.13;15.10;;;27.50;68.30;;;;;;6183155;23;20276;-78
2023/08/27 01:17:07;;;;;;;18.67;14.55;;;27.50;68.40;;;;;;6183330;23;20104;-77
2023/08/27 01:19:33;;;;;;;24.67;14.63;;;27.50;68.10;;;;;;6181603;23;20004;-75
2023/08/27 01:21:59;;;;;;;18.95;14.55;;;27.40;67.70;;;;;;6183662;23;20001;-77
2023/08/27 01:24:25;;;;;;;19.33;14.25;;;27.50;67.70;;;;;;6182985;23;20332;-77
2023/08/27 01:26:56;;;;;;;18.65;14.15;;;27.50;67.60;;;;;;6183034;23;20063;-76
2023/08/27 01:29:41;;;;;;;17.05;14.27;;;27.50;67.30;;;;;;6181448;23;20001;-76
2023/08/27 01:32:37;;;;;;;16.77;13.68;;;27.40;67.70;;;;;;6156049;23;20055;-75
2023/08/27 01:35:04;;;;;;;18.77;14.57;;;27.30;67.50;;;;;;6183437;23;20005;-76
2023/08/27 01:37:31;;;;;;;17.67;14.82;;;27.30;67.30;;;;;;6182069;23;20001;-75
2023/08/27 01:40:01;;;;;;;17.70;15.05;;;27.20;67.40;;;;;;6182481;23;20787;-77
2023/08/27 01:42:27;;;;;;;18.23;14.43;;;27.20;67.40;;;;;;6182829;23;20097;-75
2023/08/27 01:44:55;;;;;;;19.27;14.38;;;27.20;67.40;;;;;;6183295;23;20009;-77
2023/08/27 01:47:21;;;;;;;16.02;13.15;;;27.10;67.60;;;;;;6183129;23;20001;-77
2023/08/27 01:49:48;;;;;;;24.95;13.95;;;27.10;67.70;;;;;;6184471;23;20106;-78
2023/08/27 01:52:14;;;;;;;15.60;13.65;;;27.10;67.70;;;;;;6184430;23;20000;-76
2023/08/27 01:54:40;;;;;;;17.08;13.63;;;27.00;67.50;;;;;;6184491;23;20013;-76
2023/08/27 01:57:06;;;;;;;16.42;13.27;;;27.10;67.40;;;;;;6184170;23;19997;-77
2023/08/27 01:59:32;;;;;;;17.58;14.35;;;27.10;67.10;;;;;;6184189;23;20005;-76
2023/08/27 02:01:58;;;;;;;16.90;13.07;;;27.10;67.20;;;;;;6184165;23;20138;-76
2023/08/27 02:04:24;;;;;;;20.08;13.13;;;27.10;66.90;;;;;;6183905;23;20052;-78
2023/08/27 02:06:49;;;;;;;18.85;12.50;;;27.10;66.70;;;;;;6183940;23;20009;-77
2023/08/27 02:09:15;;;;;;;15.85;12.52;;;27.00;66.20;;;;;;6183854;23;20001;-76
2023/08/27 02:11:42;;;;;;;15.15;12.32;;;27.00;65.90;;;;;;6183926;23;20339;-77
2023/08/27 02:14:07;;;;;;;16.35;13.00;;;27.00;65.70;;;;;;6184175;23;20056;-76
2023/08/27 02:16:37;;;;;;;14.60;12.73;;;27.00;65.40;;;;;;6184279;23;20009;-78
2023/08/27 02:19:03;;;;;;;13.77;12.18;;;27.00;65.40;;;;;;6184393;23;20005;-77
2023/08/27 02:21:29;;;;;;;17.63;13.05;;;27.00;65.20;;;;;;6184139;23;20005;-76
2023/08/27 02:23:55;;;;;;;17.77;12.85;;;27.00;64.80;;;;;;6184432;23;20028;-79
2023/08/27 02:26:21;;;;;;;15.73;12.80;;;26.90;64.90;;;;;;6183909;23;20341;-76
2023/08/27 02:28:47;;;;;;;16.92;13.20;;;26.90;64.70;;;;;;6184340;23;20029;-77
2023/08/27 02:31:13;;;;;;;16.17;12.75;;;26.90;64.40;;;;;;6184127;23;20092;-77
2023/08/27 02:33:40;;;;;;;15.20;12.55;;;26.80;64.30;;;;;;6183908;23;20522;-76
2023/08/27 02:36:06;;;;;;;15.48;12.60;;;26.80;64.50;;;;;;6184013;23;20001;-78
2023/08/27 02:38:33;;;;;;;15.00;12.43;;;26.80;64.40;;;;;;6184159;23;20005;-76
2023/08/27 02:40:58;;;;;;;14.45;12.55;;;26.80;64.10;;;;;;6157814;23;20400;-77
2023/08/27 02:43:24;;;;;;;14.15;12.65;;;26.80;64.20;;;;;;6184205;23;19997;-77
2023/08/27 02:45:50;;;;;;;15.25;11.98;;;26.80;64.20;;;;;;6183925;23;20020;-78
2023/08/27 02:48:16;;;;;;;15.25;12.70;;;26.70;64.50;;;;;;6184580;23;20032;-78
2023/08/27 02:50:42;;;;;;;14.05;12.50;;;26.70;64.50;;;;;;6184659;23;20107;-77
2023/08/27 02:53:07;;;;;;;15.55;12.65;;;26.60;64.60;;;;;;6184489;23;20446;-77
2023/08/27 02:55:33;;;;;;;15.30;12.52;;;26.60;64.70;;;;;;6183911;23;20008;-77
2023/08/27 02:57:59;;;;;;;15.48;12.35;;;26.70;64.50;;;;;;6183945;23;20012;-79
2023/08/27 03:00:26;;;;;;;14.60;11.85;;;26.70;64.50;;;;;;6183848;23;20005;-78
2023/08/27 03:02:51;;;;;;;13.40;11.68;;;26.70;64.50;;;;;;6183995;23;20001;-76
2023/08/27 03:05:18;;;;;;;12.98;11.65;;;26.70;64.50;;;;;;6183493;23;20324;-78
2023/08/27 03:07:44;;;;;;;13.52;12.10;;;26.60;64.20;;;;;;6183782;23;20003;-77
2023/08/27 03:10:10;;;;;;;14.05;12.05;;;26.60;64.20;;;;;;6183973;23;20412;-77
2023/08/27 03:12:35;;;;;;;16.00;12.05;;;26.60;63.80;;;;;;6184049;23;20001;-77
2023/08/27 03:15:02;;;;;;;13.48;12.07;;;26.60;63.80;;;;;;6184125;23;20390;-77
2023/08/27 03:17:27;;;;;;;16.50;11.85;;;26.60;63.70;;;;;;6183478;23;20013;-78
2023/08/27 03:19:53;;;;;;;12.60;11.30;;;26.50;63.20;;;;;;6183944;23;20028;-76
2023/08/27 03:22:19;;;;;;;13.45;11.77;;;26.50;63.40;;;;;;6183858;23;20001;-76
2023/08/27 03:24:46;;;;;;;15.13;11.73;;;26.40;63.70;;;;;;6183564;23;20013;-77
2023/08/27 03:27:12;;;;;;;14.70;11.65;;;26.40;63.20;;;;;;6183585;23;20013;-77
2023/08/27 03:29:38;;;;;;;11.98;10.45;;;26.30;62.80;;;;;;6183857;23;20414;-77
2023/08/27 03:32:04;;;;;;;12.88;11.52;;;26.30;62.80;;;;;;6183790;23;20060;-78
2023/08/27 03:34:30;;;;;;;13.65;10.93;;;26.30;62.70;;;;;;6183489;23;19997;-78
2023/08/27 03:36:56;;;;;;;14.68;12.00;;;26.20;62.70;;;;;;6184178;23;20335;-77
2023/08/27 03:39:21;;;;;;;15.18;11.90;;;26.10;62.70;;;;;;6186209;23;20396;-77
2023/08/27 03:41:47;;;;;;;14.00;11.35;;;26.10;63.00;;;;;;6185706;23;20124;-78
2023/08/27 03:44:13;;;;;;;13.40;10.95;;;26.00;62.90;;;;;;6185595;23;20005;-78
2023/08/27 03:46:42;;;;;;;13.63;10.68;;;26.10;63.00;;;;;;6186066;23;20335;-77
2023/08/27 03:49:08;;;;;;;12.93;11.13;;;26.10;63.00;;;;;;6185620;23;20064;-77
2023/08/27 03:51:33;;;;;;;12.48;10.50;;;26.10;62.40;;;;;;6185602;23;20005;-77
2023/08/27 03:54:00;;;;;;;13.68;11.88;;;26.10;62.50;;;;;;6185608;23;20327;-77
2023/08/27 03:56:26;;;;;;;13.90;11.43;;;26.10;62.30;;;;;;6185632;23;20036;-77
2023/08/27 03:58:51;;;;;;;13.50;11.48;;;26.00;62.30;;;;;;6185514;23;20457;-77
2023/08/27 04:01:17;;;;;;;14.05;10.68;;;26.00;62.40;;;;;;6185416;23;20040;-76
2023/08/27 04:03:43;;;;;;;16.13;10.85;;;25.90;62.50;;;;;;6185471;23;20040;-76
2023/08/27 04:06:13;;;;;;;16.52;11.00;;;25.90;62.20;;;;;;6185343;23;20328;-78
2023/08/27 04:08:39;;;;;;;12.90;11.13;;;25.90;62.10;;;;;;6185184;23;20451;-78
2023/08/27 04:11:04;;;;;;;11.48;10.32;;;25.90;62.20;;;;;;6185349;23;20005;-76
2023/08/27 04:13:31;;;;;;;18.27;11.32;;;26.00;62.70;;;;;;6185338;23;20327;-76
2023/08/27 04:16:06;;;;;;;18.73;11.27;;;25.90;62.40;;;;;;6185317;23;20327;-77
2023/08/27 04:18:35;;;;;;;12.88;10.65;;;25.90;62.70;;;;;;6185026;23;20004;-76
2023/08/27 04:21:01;;;;;;;12.25;10.95;;;25.90;62.70;;;;;;6185164;23;20009;-78
2023/08/27 04:23:27;;;;;;;14.10;10.93;;;25.90;62.80;;;;;;6184746;23;20005;-78
2023/08/27 04:25:54;;;;;;;12.70;10.48;;;25.90;62.90;;;;;;6184734;23;20028;-78
2023/08/27 04:28:20;;;;;;;12.73;10.82;;;25.90;62.90;;;;;;6185362;23;20005;-77
2023/08/27 04:30:52;;;;;;;13.10;10.55;;;25.90;62.70;;;;;;6185451;23;20001;-79
2023/08/27 04:33:18;;;;;;;14.65;11.10;;;25.90;62.40;;;;;;6184822;23;20474;-78
2023/08/27 04:35:48;;;;;;;13.98;11.15;;;25.90;62.40;;;;;;6184970;23;20027;-77
2023/08/27 04:38:13;;;;;;;13.90;11.05;;;25.90;62.40;;;;;;6184939;23;20079;-78
2023/08/27 04:40:39;;;;;;;13.20;11.57;;;25.90;62.30;;;;;;6184617;23;19997;-77
2023/08/27 04:43:05;;;;;;;14.32;11.02;;;25.70;62.30;;;;;;6158208;23;20013;-78
2023/08/27 04:45:31;;;;;;;15.10;12.82;;;25.70;62.60;;;;;;6185201;23;20052;-78
2023/08/27 04:47:56;;;;;;;14.90;11.88;;;25.70;62.40;;;;;;6183089;23;20008;-77
2023/08/27 04:50:22;;;;;;;19.85;12.32;;;25.70;61.90;;;;;;6182720;23;19997;-80
2023/08/27 04:52:48;;;;;;;13.73;12.32;;;25.70;61.70;;;;;;6183554;23;20015;-77
2023/08/27 04:55:13;;;;;;;18.92;12.25;;;25.70;62.10;;;;;;6184695;23;20335;-76
2023/08/27 04:57:39;;;;;;;15.25;12.15;;;25.70;62.70;;;;;;6184236;23;20000;-77
2023/08/27 05:00:07;;;;;;;15.75;11.85;;;25.80;62.00;;;;;;6184518;23;20033;-77
2023/08/27 05:02:33;;;;;;;13.85;11.80;;;25.80;61.90;;;;;;6184655;23;20005;-77
2023/08/27 05:04:59;;;;;;;17.80;11.68;;;25.80;61.90;;;;;;6184123;23;20020;-77
2023/08/27 05:07:25;;;;;;;14.05;12.30;;;25.80;61.80;;;;;;6184110;23;20050;-78
2023/08/27 05:09:50;;;;;;;16.50;11.52;;;25.80;61.80;;;;;;6184524;23;20001;-78
2023/08/27 05:12:16;;;;;;;14.60;10.80;;;25.80;61.60;;;;;;6184485;23;20001;-76
2023/08/27 05:14:42;;;;;;;15.85;11.20;;;25.80;61.70;;;;;;6184622;23;20012;-77
2023/08/27 05:17:08;;;;;;;13.23;11.68;;;25.90;61.70;;;;;;6184745;23;20473;-79
2023/08/27 05:19:33;;;;;;;14.02;11.55;;;25.90;61.80;;;;;;6184672;23;19997;-76
2023/08/27 05:22:01;;;;;;;18.60;11.55;;;25.90;61.60;;;;;;6184768;23;20051;-77
2023/08/27 05:24:26;;;;;;;15.70;11.75;;;25.90;61.60;;;;;;6185118;23;20408;-78
2023/08/27 05:26:52;;;;;;;14.30;11.60;;;25.80;61.30;;;;;;6185377;23;20028;-78
2023/08/27 05:29:18;;;;;;;12.50;11.05;;;25.90;61.50;;;;;;6184213;23;20005;-79
2023/08/27 05:31:43;;;;;;;12.75;11.40;;;25.90;61.40;;;;;;6185047;23;20020;-79
2023/08/27 05:34:09;;;;;;;15.73;11.38;;;25.90;61.20;;;;;;6184602;23;20115;-76
2023/08/27 05:36:35;;;;;;;15.02;11.15;;;26.00;61.30;;;;;;6184512;23;20001;-77
2023/08/27 05:39:00;;;;;;;22.92;12.02;;;26.10;61.80;;;;;;6184708;23;20109;-78
2023/08/27 05:41:27;;;;;;;14.90;11.77;;;26.00;61.00;;;;;;6184876;23;20103;-79
2023/08/27 05:43:52;;;;;;;14.18;11.45;;;26.10;60.80;;;;;;6184212;23;20021;-79
2023/08/27 05:46:18;;;;;;;15.60;11.40;;;26.30;60.80;;;;;;6184345;23;20019;-78
2023/08/27 05:48:44;;;;;;;15.70;10.77;;;26.40;60.20;;;;;;6184520;23;20437;-76
2023/08/27 05:51:10;;;;;;;18.30;10.75;;;26.70;60.20;;;;;;6184117;23;20043;-77
2023/08/27 05:53:35;;;;;;;11.55;10.05;;;27.10;59.50;;;;;;6184849;23;20001;-78
2023/08/27 05:56:01;;;;;;;14.45;10.18;;;27.40;58.50;;;;;;6184719;23;20008;-77
2023/08/27 05:58:27;;;;;;;15.30;10.88;;;27.70;57.70;;;;;;6184492;23;20376;-77
2023/08/27 06:00:56;;;;;;;13.93;9.75;;;28.00;57.00;;;;;;6184367;23;20005;-80
2023/08/27 06:03:22;;;;;;;15.98;10.27;;;28.30;56.50;;;;;;6184499;23;20007;-77
2023/08/27 06:05:48;;;;;;;17.63;10.93;;;28.50;56.20;;;;;;6183884;23;20021;-77
2023/08/27 06:08:13;;;;;;;14.10;10.52;;;28.80;55.80;;;;;;6184094;23;20004;-77
2023/08/27 06:10:40;;;;;;;12.50;11.02;;;29.00;55.20;;;;;;6183915;23;20055;-78
2023/08/27 06:13:07;;;;;;;14.75;11.30;;;29.20;54.90;;;;;;6213833;23;20342;-77
2023/08/27 06:15:34;;;;;;;15.70;11.18;;;29.30;54.60;;;;;;6214412;23;20040;-77
2023/08/27 06:18:03;;;;;;;15.43;10.70;;;29.50;54.40;;;;;;6214604;23;20004;-79
2023/08/27 06:20:29;;;;;;;14.82;10.95;;;29.60;53.90;;;;;;6213933;23;20050;-78
2023/08/27 06:22:55;;;;;;;18.25;10.43;;;29.80;53.70;;;;;;6214108;23;20074;-76
2023/08/27 06:25:22;;;;;;;14.60;10.80;;;29.90;53.20;;;;;;6213853;23;20005;-76
2023/08/27 06:27:48;;;;;;;12.82;10.63;;;30.00;53.00;;;;;;6214173;23;20013;-76
2023/08/27 06:30:14;;;;;;;14.05;11.00;;;30.20;52.80;;;;;;6213854;23;19996;-79
2023/08/27 06:32:40;;;;;;;14.55;11.07;;;30.30;52.80;;;;;;6214018;23;20115;-77
2023/08/27 06:35:06;;;;;;;13.18;10.55;;;30.40;52.70;;;;;;6213754;23;20386;-79
2023/08/27 06:37:31;;;;;;;14.98;10.93;;;30.50;52.40;;;;;;6213879;23;20035;-77
2023/08/27 06:39:57;;;;;;;15.45;10.60;;;30.60;52.40;;;;;;6214502;23;20015;-78
2023/08/27 06:42:23;;;;;;;12.45;10.57;;;30.80;52.30;;;;;;6214218;23;20126;-77
2023/08/27 06:44:48;;;;;;;12.93;10.68;;;31.00;52.10;;;;;;6214089;23;20000;-78
2023/08/27 06:47:14;;;;;;;17.50;11.43;;;31.10;51.80;;;;;;6213897;23;20438;-77
2023/08/27 06:49:40;;;;;;;14.40;11.32;;;31.30;51.50;;;;;;6214176;23;19993;-80
2023/08/27 06:52:06;;;;;;;16.65;10.52;;;31.40;51.30;;;;;;6213864;23;20096;-77
2023/08/27 06:54:31;;;;;;;13.05;11.00;;;31.60;51.00;;;;;;6213959;23;20001;-80
2023/08/27 06:56:57;;;;;;;14.48;10.15;;;31.60;50.60;;;;;;6213918;23;20015;-77
2023/08/27 06:59:23;;;;;;;13.25;10.40;;;31.80;50.60;;;;;;6213867;23;20012;-77
2023/08/27 07:01:48;;;;;;;13.25;10.77;;;31.90;50.20;;;;;;6213378;23;20059;-74
2023/08/27 07:04:14;;;;;;;13.10;10.70;;;32.00;49.70;;;;;;6214074;23;20004;-79
2023/08/27 07:06:40;;;;;;;12.70;9.88;;;32.10;49.70;;;;;;6214872;23;20013;-78
2023/08/27 07:09:05;;;;;;;16.40;10.35;;;32.20;49.60;;;;;;6213793;23;20348;-76
2023/08/27 07:11:33;;;;;;;17.35;11.13;;;32.30;49.60;;;;;;6214113;23;20024;-77
2023/08/27 07:13:59;;;;;;;14.25;11.52;;;32.30;49.80;;;;;;6216413;23;20119;-78
2023/08/27 07:16:26;;;;;;;19.35;11.82;;;32.40;49.40;;;;;;6215590;23;20004;-78
2023/08/27 07:18:52;;;;;;;14.48;11.15;;;32.50;49.30;;;;;;6215720;23;20425;-79
2023/08/27 07:21:18;;;;;;;17.73;11.50;;;32.50;49.30;;;;;;6216115;23;20071;-79
2023/08/27 07:23:44;;;;;;;18.13;10.88;;;32.60;49.20;;;;;;6215929;23;20055;-78
2023/08/27 07:26:09;;;;;;;13.93;12.10;;;32.60;49.30;;;;;;6184155;23;20016;-76
2023/08/27 07:28:35;;;;;;;15.48;11.98;;;32.60;49.40;;;;;;6215921;23;20000;-84
2023/08/27 07:31:01;;;;;;;17.10;12.30;;;32.70;49.40;;;;;;6215628;23;20008;-76
2023/08/27 07:33:27;;;;;;;16.17;12.73;;;32.70;49.20;;;;;;6216185;23;20071;-75
2023/08/27 07:35:53;;;;;;;15.38;12.98;;;32.80;49.40;;;;;;6215408;23;20011;-75
2023/08/27 07:38:18;;;;;;;16.58;13.00;;;32.90;49.80;;;;;;6214807;23;20375;-79
2023/08/27 07:40:46;;;;;;;19.05;13.48;;;33.00;49.90;;;;;;6215704;23;20005;-79
2023/08/27 07:43:11;;;;;;;16.50;11.68;;;33.00;49.40;;;;;;6215997;23;20085;-79
2023/08/27 07:45:37;;;;;;;16.00;12.45;;;32.90;49.60;;;;;;6215733;23;20391;-79
2023/08/27 07:48:03;;;;;;;16.80;11.93;;;32.90;49.50;;;;;;6215975;23;20076;-81
2023/08/27 07:50:29;;;;;;;15.48;13.55;;;32.90;49.40;;;;;;6215706;23;20453;-82
2023/08/27 07:52:54;;;;;;;17.00;13.63;;;32.90;49.70;;;;;;6214707;23;19997;-77
2023/08/27 07:55:20;;;;;;;14.15;12.73;;;32.90;49.90;;;;;;6214438;23;20107;-83
2023/08/27 07:57:46;;;;;;;15.57;13.32;;;32.90;50.10;;;;;;6216221;23;20050;-82
2023/08/27 08:00:13;;;;;;;19.45;12.45;;;32.70;50.00;;;;;;6215661;23;20383;-81
2023/08/27 08:02:40;;;;;;;17.13;13.25;;;32.70;50.10;;;;;;6183136;23;20031;-80
2023/08/27 08:05:06;;;;;;;15.30;12.52;;;32.60;50.50;;;;;;6209537;23;20016;-80
2023/08/27 08:07:34;;;;;;;17.75;11.70;;;32.60;50.40;;;;;;6215560;23;20442;-78
2023/08/27 08:10:00;;;;;;;16.42;14.25;;;32.60;50.60;;;;;;6216719;23;20075;-78
2023/08/27 08:12:26;;;;;;;15.98;13.00;;;32.50;50.60;;;;;;6217187;23;20008;-81
2023/08/27 08:14:52;;;;;;;16.67;13.80;;;32.50;50.80;;;;;;6217034;23;19996;-81
2023/08/27 08:17:18;;;;;;;16.60;13.38;;;32.40;51.30;;;;;;6216168;23;20031;-81
2023/08/27 08:19:44;;;;;;;15.05;13.45;;;32.30;51.50;;;;;;6217149;23;19997;-81
2023/08/27 08:22:09;;;;;;;14.43;12.90;;;32.20;51.50;;;;;;6216562;23;20447;-82
2023/08/27 08:24:35;;;;;;;16.13;13.93;;;32.20;51.60;;;;;;6217269;23;20009;-80
2023/08/27 08:27:02;;;;;;;15.15;12.88;;;32.20;51.60;;;;;;6216783;23;20344;-79
2023/08/27 08:29:32;;;;;;;17.42;13.82;;;32.10;51.50;;;;;;6216447;23;20012;-79
2023/08/27 08:31:59;;;;;;;17.70;15.55;;;32.10;50.80;;;;;;6216827;23;20004;-81
2023/08/27 08:34:29;;;;;;;19.42;13.80;;;32.10;52.50;;;;;;6216611;23;20034;-81
2023/08/27 08:36:55;;;;;;;15.40;13.25;;;32.10;52.20;;;;;;6216645;23;20415;-81
2023/08/27 08:39:23;;;;;;;16.33;14.60;;;32.00;53.00;;;;;;6216888;23;20327;-81
2023/08/27 08:41:59;;;;;;;15.85;14.00;;;32.00;53.10;;;;;;6216635;23;20016;-80
2023/08/27 08:44:39;;;;;;;15.07;13.27;;;32.00;52.70;;;;;;6215236;23;20054;-81
2023/08/27 08:47:09;;;;;;;17.70;14.02;;;31.90;53.00;;;;;;6216680;23;20462;-80
2023/08/27 08:49:39;;;;;;;17.55;13.77;;;31.90;52.90;;;;;;6215463;23;20035;-81
2023/08/27 08:52:09;;;;;;;17.13;12.90;;;31.90;53.10;;;;;;6215529;23;20000;-80
2023/08/27 08:54:39;;;;;;;15.25;13.75;;;31.90;52.70;;;;;;6216431;23;20008;-80
2023/08/27 08:57:06;;;;;;;19.55;13.52;;;31.90;52.50;;;;;;6216295;23;19997;-78
2023/08/27 08:59:33;;;;;;;21.77;14.00;;;32.00;52.60;;;;;;6216160;23;20005;-78
2023/08/27 09:01:59;;;;;;;16.23;13.35;;;32.00;52.60;;;;;;6215001;23;20000;-79
2023/08/27 09:04:25;;;;;;;15.68;13.02;;;32.10;52.30;;;;;;6213212;23;20079;-82
2023/08/27 09:06:52;;;;;;;16.25;13.45;;;32.10;52.20;;;;;;6216123;23;20008;-81
2023/08/27 09:09:21;;;;;;;15.52;12.68;;;32.10;52.20;;;;;;6216331;23;20414;-83
2023/08/27 09:11:48;;;;;;;15.27;12.10;;;32.20;52.20;;;;;;6216316;23;20005;-84
2023/08/27 09:14:15;;;;;;;14.43;12.93;;;32.20;51.80;;;;;;6184831;23;20009;-81
2023/08/27 09:16:41;;;;;;;20.00;12.48;;;32.20;51.60;;;;;;6216725;23;20027;-82
2023/08/27 09:19:06;;;;;;;13.93;12.32;;;32.20;51.00;;;;;;6219316;23;20001;-82
2023/08/27 09:21:34;;;;;;;17.38;12.43;;;32.20;50.80;;;;;;6204051;23;20001;-82
2023/08/27 09:24:00;;;;;;;17.88;12.93;;;32.20;50.60;;;;;;6215576;23;20009;-82
2023/08/27 09:26:25;;;;;;;21.02;12.27;;;32.30;50.40;;;;;;6214698;23;20016;-82
2023/08/27 09:28:52;;;;;;;20.48;12.30;;;32.30;50.20;;;;;;6214984;23;19997;-82
2023/08/27 09:31:42;;;;;;;14.45;12.25;;;32.30;50.20;;;;;;6185754;23;20485;-83
2023/08/27 09:34:09;;;;;;;15.77;12.80;;;32.40;49.50;;;;;;6182419;23;20462;-80
2023/08/27 09:36:38;;;;;;;16.48;12.00;;;32.30;49.40;;;;;;6213707;23;20008;-80
2023/08/27 09:39:09;;;;;;;17.58;11.90;;;32.30;49.10;;;;;;6215170;23;20083;-78
2023/08/27 09:41:45;;;;;;;15.18;11.73;;;32.40;49.50;;;;;;6214149;23;20015;-81
2023/08/27 09:44:12;;;;;;;13.75;11.98;;;32.50;48.30;;;;;;6215326;23;20000;-83
2023/08/27 09:46:40;;;;;;;14.30;11.75;;;32.50;48.90;;;;;;6214889;23;20028;-79
2023/08/27 09:49:07;;;;;;;13.10;11.80;;;32.60;48.80;;;;;;6214969;23;20001;-80
2023/08/27 09:51:35;;;;;;;14.48;11.80;;;32.70;49.00;;;;;;6215175;23;20004;-78
2023/08/27 09:54:15;;;;;;;15.07;11.82;;;32.80;49.00;;;;;;6213909;23;20522;-81
2023/08/27 09:56:46;;;;;;;13.43;12.00;;;32.90;48.70;;;;;;6214733;23;20124;-77
2023/08/27 09:59:15;;;;;;;15.10;12.02;;;32.90;48.30;;;;;;6214769;23;20046;-79
2023/08/27 10:01:46;;;;;;;13.90;11.57;;;33.00;47.70;;;;;;6214850;23;20088;-79
2023/08/27 10:04:12;;;;;;;13.65;11.25;;;33.10;47.30;;;;;;6214641;23;20009;-76
2023/08/27 10:06:38;;;;;;;14.50;11.65;;;33.20;46.60;;;;;;6214240;23;20020;-82
2023/08/27 10:09:04;;;;;;;13.13;11.40;;;33.20;46.60;;;;;;6215151;23;20036;-82
2023/08/27 10:11:32;;;;;;;15.38;11.98;;;33.30;46.10;;;;;;6215321;23;20011;-80
2023/08/27 10:13:58;;;;;;;12.60;10.50;;;33.30;45.80;;;;;;6215242;23;20011;-80
2023/08/27 10:16:25;;;;;;;13.80;10.88;;;33.40;44.90;;;;;;6214135;23;20008;-78
2023/08/27 10:18:52;;;;;;;14.70;11.20;;;33.50;44.90;;;;;;6214862;23;19997;-78
2023/08/27 10:21:18;;;;;;;12.43;10.45;;;33.60;44.60;;;;;;6214862;23;20004;-81
2023/08/27 10:23:45;;;;;;;12.00;10.32;;;33.60;44.60;;;;;;6214788;23;20372;-80
2023/08/27 10:26:11;;;;;;;15.00;11.15;;;33.70;44.20;;;;;;6183541;23;20025;-81
2023/08/27 10:28:38;;;;;;;17.90;10.25;;;33.80;44.30;;;;;;6214965;23;19996;-80
2023/08/27 10:31:05;;;;;;;19.50;11.20;;;33.80;44.60;;;;;;6213714;23;20010;-78
2023/08/27 10:33:31;;;;;;;12.88;10.35;;;33.90;45.10;;;;;;6188037;23;20292;-80
2023/08/27 10:36:03;;;;;;;14.73;10.88;;;33.90;45.30;;;;;;6214974;23;20123;-80
2023/08/27 10:38:33;;;;;;;13.60;10.07;;;34.00;45.40;;;;;;6214768;23;20001;-80
2023/08/27 10:41:02;;;;;;;12.13;10.43;;;34.00;45.90;;;;;;6215644;23;20001;-81
2023/08/27 10:43:32;;;;;;;15.27;10.32;;;34.00;46.10;;;;;;6216856;23;20008;-85
2023/08/27 10:46:10;;;;;;;14.73;11.15;;;34.10;45.80;;;;;;6216079;23;20036;-82
2023/08/27 10:48:37;;;;;;;13.65;10.27;;;34.20;45.90;;;;;;6216415;23;20024;-83
2023/08/27 10:51:13;;;;;;;15.00;11.15;;;34.20;45.70;;;;;;6215606;23;20007;-82
2023/08/27 10:53:49;;;;;;;14.48;11.18;;;34.20;46.20;;;;;;6215422;23;20090;-86
2023/08/27 10:56:36;;;;;;;13.15;11.52;;;34.20;46.10;;;;;;6214162;23;20335;-80
2023/08/27 10:59:03;;;;;;;14.93;11.18;;;34.20;46.20;;;;;;6213439;23;20005;-81
2023/08/27 11:01:36;;;;;;;15.45;11.23;;;34.30;46.90;;;;;;6191651;23;20013;-80
2023/08/27 11:04:04;;;;;;;12.60;11.20;;;34.40;47.30;;;;;;6213198;23;20005;-79
2023/08/27 11:06:46;;;;;;;15.43;11.10;;;34.40;47.30;;;;;;6212053;23;20446;-85
2023/08/27 11:09:12;;;;;;;17.20;11.07;;;34.40;47.20;;;;;;6215634;23;20494;-85
2023/08/27 11:11:48;;;;;;;14.30;11.10;;;34.40;47.20;;;;;;6212281;23;20456;-83
2023/08/27 11:14:16;;;;;;;16.50;11.25;;;34.60;47.20;;;;;;6189126;23;20067;-83
2023/08/27 11:16:53;;;;;;;13.68;11.57;;;34.60;46.90;;;;;;6220025;23;20007;-90
2023/08/27 11:19:36;;;;;;;12.57;10.85;;;34.60;46.30;;;;;;6220026;23;19997;-88
2023/08/27 11:22:17;;;;;;;13.57;10.80;;;34.60;46.30;;;;;;6194871;23;20494;-88
2023/08/27 11:24:48;;;;;;;14.90;11.13;;;34.60;46.90;;;;;;6189878;23;20016;-84
2023/08/27 11:27:18;;;;;;;13.70;11.30;;;34.70;46.50;;;;;;6211046;23;20067;-80
2023/08/27 11:29:49;;;;;;;15.10;11.45;;;34.70;46.70;;;;;;6216401;23;20013;-83
2023/08/27 11:32:15;;;;;;;14.40;11.48;;;34.70;46.80;;;;;;6213448;23;20000;-81
2023/08/27 11:34:43;;;;;;;15.48;11.05;;;34.70;46.90;;;;;;6213785;23;20060;-81
2023/08/27 11:37:09;;;;;;;14.52;11.63;;;34.80;47.10;;;;;;6210795;23;20016;-82
2023/08/27 11:39:36;;;;;;;12.32;10.90;;;34.70;47.10;;;;;;6213611;23;20024;-80
2023/08/27 11:42:15;;;;;;;15.50;10.35;;;34.80;46.80;;;;;;6213194;23;20000;-81
2023/08/27 11:44:52;;;;;;;11.30;10.07;;;34.90;46.30;;;;;;6212973;23;20024;-79
2023/08/27 11:47:20;;;;;;;11.25;9.40;;;35.00;46.80;;;;;;6209857;23;20023;-82
2023/08/27 11:49:46;;;;;;;15.15;10.20;;;35.00;46.70;;;;;;6213581;23;20005;-81
2023/08/27 11:52:14;;;;;;;11.55;9.73;;;35.00;46.10;;;;;;6213374;23;20011;-82
2023/08/27 11:54:41;;;;;;;14.30;9.90;;;35.00;45.90;;;;;;6213309;23;20004;-83
2023/08/27 11:57:08;;;;;;;15.10;9.45;;;35.00;45.40;;;;;;6212328;23;20001;-79
2023/08/27 11:59:33;;;;;;;16.00;10.52;;;35.10;45.40;;;;;;6216560;23;20015;-86
2023/08/27 12:02:02;;;;;;;16.55;9.88;;;35.10;45.50;;;;;;6220463;23;20028;-80
2023/08/27 12:04:28;;;;;;;13.43;10.38;;;35.20;45.50;;;;;;6217164;23;20012;-77
2023/08/27 12:06:59;;;;;;;11.85;9.23;;;35.20;45.60;;;;;;6213653;23;20025;-83
2023/08/27 12:09:27;;;;;;;13.55;10.10;;;35.20;44.80;;;;;;6218759;23;19997;-80
2023/08/27 12:11:53;;;;;;;12.50;9.77;;;35.30;44.60;;;;;;6216312;23;20423;-80
2023/08/27 12:14:27;;;;;;;11.30;10.13;;;35.30;44.20;;;;;;6215169;23;20092;-82
2023/08/27 12:16:53;;;;;;;13.18;10.10;;;35.30;43.90;;;;;;6208611;23;20375;-82
2023/08/27 12:19:21;;;;;;;13.20;10.35;;;35.30;43.80;;;;;;6216798;23;19996;-83
2023/08/27 12:21:51;;;;;;;17.73;9.07;;;35.40;43.30;;;;;;6224255;23;20000;-79
2023/08/27 12:24:34;;;;;;;14.15;9.77;;;35.40;43.40;;;;;;6215336;23;20380;-79
2023/08/27 12:27:06;;;;;;;14.17;9.60;;;35.40;43.10;;;;;;6210669;23;20433;-78
2023/08/27 12:29:40;;;;;;;11.07;9.07;;;35.40;42.50;;;;;;6214855;23;20039;-78
2023/08/27 12:32:17;;;;;;;13.60;8.95;;;35.50;42.50;;;;;;6214803;23;20286;-80
2023/08/27 12:34:44;;;;;;;13.25;8.88;;;35.50;41.60;;;;;;6214623;23;20015;-77